Ouro Preto, Brazil
Current Conditions -  °F | °C
As of 6:00 PM on Friday 24 Oct 2014 (Local Time) from SBBH Reporting Station
Few Clouds Few Clouds  
Wind Chill: 86°   Ceiling: Unl
Heat Index: 86°   Visibility: 6mi
Dew Point: 54°   Wind: 10mph
Humidity: 33%   Direction: 80°E
Pressure: 29.94"   Gusts: NA
Location:  20.29°S, 43.51°W
Report Text: SBBH 242000Z 08009KT 9999 FEW040 30/12 Q1014
Loading
Personal Weather Stations






























Interactive Weather Map
Tropical Storm Tracking
New forecast layout! Learn more

10-Day Weather Forecast

Advertisements
Track Severe Weather on mobile